createdAt,value
2022-12-22T00:02:44.847Z,6.26
2022-12-22T00:05:36.807Z,6.26
2022-12-22T00:08:22.606Z,6.21
2022-12-22T00:11:08.397Z,6.25
2022-12-22T00:13:54.409Z,6.20
2022-12-22T00:16:40.122Z,6.21
2022-12-22T00:19:30.683Z,6.17
2022-12-22T00:22:20.400Z,6.17
2022-12-22T00:25:05.671Z,6.18
2022-12-22T00:27:50.948Z,6.20
2022-12-22T00:30:37.013Z,6.20
2022-12-22T00:33:24.052Z,6.22
2022-12-22T00:36:09.941Z,6.25
2022-12-22T00:38:57.020Z,6.26
2022-12-22T00:41:42.446Z,6.25
2022-12-22T00:44:27.686Z,6.25
2022-12-22T00:47:13.513Z,6.28
2022-12-22T00:49:59.802Z,6.28
2022-12-22T00:52:45.143Z,6.28
2022-12-22T00:55:34.270Z,6.28
2022-12-22T00:58:20.699Z,6.26
2022-12-22T01:01:05.952Z,6.26
2022-12-22T01:03:51.422Z,6.29
2022-12-22T01:06:37.064Z,6.31
2022-12-22T01:09:23.898Z,6.29
2022-12-22T01:12:11.124Z,6.29
2022-12-22T01:14:56.465Z,6.29
2022-12-22T01:17:42.235Z,6.26
2022-12-22T01:20:28.349Z,6.29
2022-12-22T01:23:14.213Z,6.26
2022-12-22T01:26:00.026Z,6.25
2022-12-22T01:28:46.942Z,6.29
2022-12-22T01:31:37.400Z,6.25
2022-12-22T01:34:23.118Z,6.26
2022-12-22T01:37:09.003Z,6.25
2022-12-22T01:39:54.465Z,6.24
2022-12-22T01:42:40.269Z,6.26
2022-12-22T01:45:38.856Z,6.25
2022-12-22T01:48:29.460Z,6.22
2022-12-22T01:51:15.539Z,6.25
2022-12-22T01:54:01.482Z,6.26
2022-12-22T01:56:47.476Z,6.28
2022-12-22T01:59:32.874Z,6.28
2022-12-22T02:02:20.689Z,6.26
2022-12-22T02:05:06.677Z,6.31
2022-12-22T02:08:03.736Z,6.28
2022-12-22T02:11:10.924Z,6.32
2022-12-22T02:14:04.332Z,6.29
2022-12-22T02:16:53.288Z,6.26
2022-12-22T02:20:01.183Z,6.32
2022-12-22T02:22:50.712Z,6.31
2022-12-22T02:25:41.520Z,6.31
2022-12-22T02:28:30.406Z,6.31
2022-12-22T02:31:17.085Z,6.34
2022-12-22T02:34:03.088Z,6.35
2022-12-22T02:36:54.157Z,6.31
2022-12-22T02:39:46.185Z,6.21
2022-12-22T02:42:36.764Z,6.14
2022-12-22T02:45:28.921Z,6.08
2022-12-22T02:48:21.305Z,5.98
2022-12-22T02:51:12.242Z,5.95
2022-12-22T02:53:58.779Z,6.00
2022-12-22T02:56:44.558Z,5.95
2022-12-22T02:59:30.343Z,6.01
2022-12-22T03:02:17.336Z,6.04
2022-12-22T03:05:02.757Z,6.08
2022-12-22T03:07:48.333Z,6.14
2022-12-22T03:10:34.302Z,6.20
2022-12-22T03:13:19.832Z,6.24
2022-12-22T03:16:05.139Z,6.26
2022-12-22T03:18:52.392Z,6.29
2022-12-22T03:21:38.381Z,6.32
2022-12-22T03:24:24.556Z,6.32
2022-12-22T03:26:52.742Z,6.35
2022-12-22T03:29:20.720Z,6.35
2022-12-22T03:31:49.188Z,6.36
2022-12-22T03:34:18.462Z,6.39
2022-12-22T03:36:46.440Z,6.36
2022-12-22T03:39:14.482Z,6.39
2022-12-22T03:42:00.375Z,6.38
2022-12-22T03:44:45.669Z,6.38
2022-12-22T03:47:14.320Z,6.36
2022-12-22T03:49:43.701Z,6.39
2022-12-22T03:52:11.680Z,6.44
2022-12-22T03:54:39.723Z,6.44
2022-12-22T03:57:07.742Z,6.46
2022-12-22T03:59:35.719Z,6.50
2022-12-22T04:02:03.878Z,6.48
2022-12-22T04:04:32.124Z,6.50
2022-12-22T04:07:01.563Z,6.49
2022-12-22T04:09:29.555Z,6.52
2022-12-22T04:12:15.179Z,6.53
2022-12-22T04:14:43.138Z,6.50
2022-12-22T04:17:11.141Z,6.46
2022-12-22T04:19:39.801Z,6.38
2022-12-22T04:22:09.270Z,6.34
2022-12-22T04:24:37.280Z,6.29
2022-12-22T04:27:05.342Z,6.28
2022-12-22T04:29:33.373Z,6.25
2022-12-22T04:32:01.445Z,6.32
2022-12-22T04:34:29.519Z,6.35
2022-12-22T04:37:04.416Z,6.38
2022-12-22T04:39:39.342Z,6.39
2022-12-22T04:42:07.276Z,6.44
2022-12-22T04:44:35.233Z,6.45
2022-12-22T04:47:03.308Z,6.49
2022-12-22T04:49:31.282Z,6.49
2022-12-22T04:51:59.476Z,6.55
2022-12-22T04:54:27.412Z,6.57
2022-12-22T04:56:56.794Z,6.63
2022-12-22T04:59:24.898Z,6.72
2022-12-22T05:01:53.282Z,6.75
2022-12-22T05:04:23.865Z,6.76
2022-12-22T05:06:52.149Z,6.77
2022-12-22T05:09:20.082Z,6.79
2022-12-22T05:11:48.102Z,6.83
2022-12-22T05:14:17.412Z,6.82
2022-12-22T05:16:45.475Z,6.82
2022-12-22T05:19:13.480Z,6.87
2022-12-22T05:21:41.531Z,6.84
2022-12-22T05:24:09.624Z,6.84
2022-12-22T05:26:37.617Z,6.86
2022-12-22T05:29:05.574Z,6.86
2022-12-22T05:31:37.747Z,6.89
2022-12-22T05:34:08.688Z,6.90
2022-12-22T05:36:36.990Z,6.90
2022-12-22T05:39:05.051Z,6.93
2022-12-22T05:41:33.017Z,6.87
2022-12-22T05:44:01.013Z,6.92
2022-12-22T05:46:29.113Z,6.94
2022-12-22T05:48:58.468Z,6.96
2022-12-22T05:51:26.455Z,7.00
2022-12-22T05:53:54.445Z,7.00
2022-12-22T05:56:22.388Z,7.00
2022-12-22T05:58:50.368Z,6.99
2022-12-22T06:01:18.330Z,7.04
2022-12-22T06:03:46.430Z,7.01
2022-12-22T06:06:16.083Z,7.07
2022-12-22T06:08:44.134Z,7.08
2022-12-22T06:11:12.099Z,7.07
2022-12-22T06:13:40.091Z,7.13
2022-12-22T06:16:08.670Z,7.14
2022-12-22T06:18:36.785Z,7.17
2022-12-22T06:21:04.917Z,7.18
2022-12-22T06:23:34.287Z,7.18
2022-12-22T06:26:05.391Z,7.17
2022-12-22T06:28:33.391Z,7.17
2022-12-22T06:31:01.528Z,7.17
2022-12-22T06:33:29.507Z,7.23
2022-12-22T06:35:59.364Z,7.27
2022-12-22T06:38:28.320Z,7.25
2022-12-22T06:40:57.966Z,7.28
2022-12-22T06:43:25.179Z,7.25
2022-12-22T06:46:13.219Z,7.31
2022-12-22T06:48:41.439Z,7.31
2022-12-22T06:51:09.451Z,7.30
2022-12-22T06:53:41.150Z,7.34
2022-12-22T06:56:10.598Z,7.34
2022-12-22T06:58:38.708Z,7.34
2022-12-22T07:01:06.912Z,7.32
2022-12-22T07:03:35.061Z,7.36
2022-12-22T07:06:03.080Z,7.34
2022-12-22T07:08:31.162Z,7.38
2022-12-22T07:10:59.153Z,7.92
2022-12-22T07:13:29.974Z,8.11
2022-12-22T07:16:01.088Z,8.27
2022-12-22T07:18:30.676Z,8.30
2022-12-22T07:20:58.853Z,8.37
2022-12-22T07:23:27.294Z,8.42
2022-12-22T07:25:55.534Z,8.44
2022-12-22T07:28:23.678Z,8.48
2022-12-22T07:30:54.144Z,8.62
2022-12-22T07:33:22.337Z,8.58
2022-12-22T07:35:50.392Z,8.58
2022-12-22T07:38:18.376Z,8.68
2022-12-22T07:40:51.674Z,8.65
2022-12-22T07:43:19.196Z,8.69
2022-12-22T07:45:47.344Z,8.75
2022-12-22T07:48:30.936Z,8.55
2022-12-22T07:51:02.667Z,8.31
2022-12-22T07:53:30.689Z,8.16
2022-12-22T07:56:02.938Z,8.04
2022-12-22T07:58:31.231Z,7.96
2022-12-22T08:01:00.347Z,7.89
2022-12-22T08:03:29.723Z,7.82
2022-12-22T08:05:57.837Z,7.75
2022-12-22T08:08:25.858Z,7.71
2022-12-22T08:10:53.864Z,7.66
2022-12-22T08:13:22.269Z,7.69
2022-12-22T08:15:50.326Z,7.65
2022-12-22T08:18:18.316Z,7.66
2022-12-22T08:20:51.833Z,7.68
2022-12-22T08:23:20.239Z,7.69
2022-12-22T08:25:50.064Z,7.68
2022-12-22T08:28:18.315Z,7.68
2022-12-22T08:30:46.598Z,7.69
2022-12-22T08:33:14.742Z,7.71
2022-12-22T08:35:43.348Z,7.68
2022-12-22T08:38:14.108Z,7.68
2022-12-22T08:40:43.943Z,7.68
2022-12-22T08:43:12.753Z,7.68
2022-12-22T08:45:41.930Z,7.69
2022-12-22T08:48:10.600Z,7.68
2022-12-22T08:50:38.846Z,7.65
2022-12-22T08:53:18.843Z,7.68
2022-12-22T08:55:57.666Z,7.68
2022-12-22T08:58:25.751Z,7.69
2022-12-22T09:00:53.805Z,7.68
2022-12-22T09:03:21.887Z,7.69
2022-12-22T09:05:49.947Z,7.68
2022-12-22T09:08:17.900Z,7.68
2022-12-22T09:10:46.356Z,7.68
2022-12-22T09:13:15.646Z,7.68
2022-12-22T09:15:43.730Z,7.68
2022-12-22T09:18:11.682Z,7.68
2022-12-22T09:20:39.670Z,7.72
2022-12-22T09:23:07.664Z,7.73
2022-12-22T09:25:36.030Z,7.73
2022-12-22T09:28:05.490Z,7.73
2022-12-22T09:30:34.828Z,7.73
2022-12-22T09:33:02.917Z,7.73
2022-12-22T09:35:30.979Z,7.76
2022-12-22T09:37:59.754Z,7.75
2022-12-22T09:40:28.145Z,7.73
2022-12-22T09:42:56.304Z,7.76
2022-12-22T09:45:24.526Z,7.79
2022-12-22T09:47:55.015Z,7.75
2022-12-22T09:50:25.237Z,7.79
2022-12-22T09:52:55.272Z,7.79
2022-12-22T09:55:33.875Z,7.82
2022-12-22T09:58:01.960Z,7.82
2022-12-22T10:00:30.285Z,7.83
2022-12-22T10:03:05.709Z,7.83
2022-12-22T10:05:39.289Z,7.85
2022-12-22T10:08:12.034Z,7.85
2022-12-22T10:10:40.447Z,7.86
2022-12-22T10:13:12.869Z,7.90
2022-12-22T10:15:41.818Z,7.90
2022-12-22T10:18:13.622Z,7.89
2022-12-22T10:20:42.483Z,7.92
2022-12-22T10:23:18.892Z,7.90
2022-12-22T10:26:27.937Z,7.92
2022-12-22T10:28:52.222Z,7.97
2022-12-22T10:31:22.214Z,8.00
2022-12-22T10:33:53.877Z,8.02
2022-12-22T10:36:24.685Z,8.07
2022-12-22T10:38:58.724Z,8.06
2022-12-22T10:41:28.844Z,8.10
2022-12-22T10:43:59.057Z,8.10
2022-12-22T10:46:36.928Z,8.14
2022-12-22T10:49:21.521Z,8.14
2022-12-22T10:51:52.200Z,8.14
2022-12-22T10:54:33.950Z,8.16
2022-12-22T10:57:05.785Z,8.16
2022-12-22T10:59:34.806Z,8.19
2022-12-22T11:02:24.901Z,8.24
2022-12-22T11:04:55.360Z,8.29
2022-12-22T11:07:24.850Z,8.34
2022-12-22T11:09:52.975Z,8.31
2022-12-22T11:12:27.274Z,8.34
2022-12-22T11:15:01.591Z,8.34
2022-12-22T11:17:34.922Z,8.37
2022-12-22T11:20:27.962Z,8.34
2022-12-22T11:23:01.665Z,8.37
2022-12-22T11:25:37.142Z,8.40
2022-12-22T11:28:23.922Z,8.40
2022-12-22T11:31:00.574Z,8.38
2022-12-22T11:33:36.934Z,8.42
2022-12-22T11:36:09.764Z,8.44
2022-12-22T11:38:46.762Z,8.47
2022-12-22T11:41:26.064Z,8.47
2022-12-22T11:44:03.201Z,8.47
2022-12-22T11:46:35.911Z,8.47
2022-12-22T11:49:17.230Z,8.50
2022-12-22T11:52:06.255Z,8.51
2022-12-22T11:54:50.123Z,8.50
2022-12-22T11:57:27.711Z,8.51
2022-12-22T12:00:02.720Z,8.50
2022-12-22T12:03:14.113Z,8.50
2022-12-22T12:05:50.766Z,8.58
2022-12-22T12:08:29.475Z,8.57
2022-12-22T12:11:06.525Z,8.58
2022-12-22T12:13:41.112Z,8.62
2022-12-22T12:16:18.508Z,8.62
2022-12-22T12:19:04.712Z,8.64
2022-12-22T12:21:38.582Z,8.64
2022-12-22T12:24:26.127Z,8.64
2022-12-22T12:27:00.601Z,8.65
2022-12-22T12:29:29.700Z,8.68
2022-12-22T12:32:02.236Z,8.68
2022-12-22T12:34:33.311Z,8.71
2022-12-22T12:37:04.626Z,8.69
2022-12-22T12:39:39.052Z,8.75
2022-12-22T12:42:18.070Z,8.78
2022-12-22T12:44:47.195Z,8.78
2022-12-22T12:47:27.023Z,8.81
2022-12-22T12:50:03.369Z,8.83
2022-12-22T12:53:16.449Z,8.85
2022-12-22T12:56:02.996Z,8.86
2022-12-22T12:58:58.410Z,8.86
2022-12-22T13:01:57.494Z,8.89
2022-12-22T13:05:14.030Z,8.89
2022-12-22T13:08:11.286Z,8.92
2022-12-22T13:11:52.655Z,8.95
2022-12-22T13:14:51.997Z,8.99
2022-12-22T13:17:42.188Z,8.99
2022-12-22T13:20:14.375Z,9.03
2022-12-22T13:22:43.909Z,9.05
2022-12-22T13:25:14.751Z,9.03
2022-12-22T13:27:42.757Z,9.06
2022-12-22T13:30:16.797Z,9.06
2022-12-22T13:32:46.117Z,9.09
2022-12-22T13:35:30.845Z,9.10
2022-12-22T13:38:00.013Z,9.12
2022-12-22T13:40:30.671Z,9.09
2022-12-22T13:43:02.528Z,9.09
2022-12-22T13:45:34.715Z,9.09
2022-12-22T13:48:07.816Z,9.10
2022-12-22T13:50:38.561Z,9.10
2022-12-22T13:53:08.746Z,9.19
2022-12-22T13:55:37.268Z,9.22
2022-12-22T13:58:08.226Z,9.20
2022-12-22T14:00:37.595Z,9.22
2022-12-22T14:03:34.140Z,9.27
2022-12-22T14:06:02.741Z,9.31
2022-12-22T14:08:30.834Z,9.34
2022-12-22T14:10:58.838Z,9.34
2022-12-22T14:13:31.292Z,9.30
2022-12-22T14:16:05.623Z,9.30
2022-12-22T14:18:33.937Z,9.36
2022-12-22T14:21:02.378Z,9.36
2022-12-22T14:23:32.643Z,9.31
2022-12-22T14:26:01.847Z,9.30
2022-12-22T14:28:33.403Z,9.27
2022-12-22T14:31:04.001Z,9.22
2022-12-22T14:33:33.735Z,9.16
2022-12-22T14:36:16.330Z,9.10
2022-12-22T14:38:45.133Z,9.08
2022-12-22T14:41:38.273Z,9.00
2022-12-22T14:44:06.537Z,8.96
2022-12-22T14:46:39.161Z,8.98
2022-12-22T14:49:14.266Z,8.93
2022-12-22T14:51:42.459Z,8.90
2022-12-22T14:54:19.975Z,8.88
2022-12-22T14:56:49.429Z,8.83
2022-12-22T14:59:26.260Z,8.82
2022-12-22T15:02:00.654Z,8.83
2022-12-22T15:04:29.319Z,8.79
2022-12-22T15:07:06.964Z,8.76
2022-12-22T15:10:13.762Z,8.76
2022-12-22T15:12:22.798Z,8.73
2022-12-22T15:14:50.815Z,8.73
2022-12-22T15:17:24.033Z,8.72
2022-12-22T15:19:51.945Z,8.71
2022-12-22T15:22:20.865Z,8.69
2022-12-22T15:24:49.043Z,8.69
2022-12-22T15:27:17.022Z,8.67
2022-12-22T15:29:44.951Z,8.62
2022-12-22T15:32:13.925Z,8.64
2022-12-22T15:34:43.482Z,8.64
2022-12-22T15:37:12.826Z,8.58
2022-12-22T15:39:41.344Z,8.57
2022-12-22T15:42:09.355Z,8.57
2022-12-22T15:44:39.175Z,8.57
2022-12-22T15:47:09.562Z,8.52
2022-12-22T15:49:37.985Z,8.51
2022-12-22T15:52:07.838Z,8.47
2022-12-22T15:54:36.647Z,8.47
2022-12-22T15:57:04.773Z,8.45
2022-12-22T15:59:32.781Z,8.42
2022-12-22T16:02:02.167Z,8.45
2022-12-22T16:04:30.537Z,8.41
2022-12-22T16:06:59.791Z,8.36
2022-12-22T16:09:32.604Z,8.36
2022-12-22T16:12:00.866Z,8.36
2022-12-22T16:14:32.454Z,8.31
2022-12-22T16:17:03.308Z,8.26
2022-12-22T16:19:31.351Z,8.23
2022-12-22T16:21:59.305Z,8.20
2022-12-22T16:24:30.518Z,8.16
2022-12-22T16:26:59.096Z,8.10
2022-12-22T16:29:27.991Z,8.02
2022-12-22T16:32:17.601Z,7.93
2022-12-22T16:34:46.933Z,7.82
2022-12-22T16:37:14.879Z,7.72
2022-12-22T16:39:44.497Z,7.62
2022-12-22T16:45:01.683Z,7.44
2022-12-22T16:47:33.711Z,7.35
2022-12-22T16:50:02.596Z,7.27
2022-12-22T16:52:37.099Z,7.15
2022-12-22T16:55:14.699Z,7.13
2022-12-22T16:57:42.707Z,7.04
2022-12-22T17:00:17.697Z,6.96
2022-12-22T17:02:48.506Z,6.94
2022-12-22T17:05:25.202Z,6.89
2022-12-22T17:07:53.486Z,6.82
2022-12-22T17:10:23.513Z,6.77
2022-12-22T17:12:54.178Z,6.75
2022-12-22T17:15:23.955Z,6.66
2022-12-22T17:17:52.709Z,6.61
2022-12-22T17:20:22.876Z,6.57
2022-12-22T17:22:53.510Z,6.53
2022-12-22T17:25:26.090Z,6.52
2022-12-22T17:27:54.781Z,6.49
2022-12-22T17:30:24.938Z,6.50
2022-12-22T17:32:53.622Z,6.53
2022-12-22T17:35:24.824Z,6.57
2022-12-22T17:37:53.407Z,6.59
2022-12-22T17:40:26.539Z,6.66
2022-12-22T17:42:54.720Z,6.73
2022-12-22T17:45:23.080Z,6.82
2022-12-22T17:47:51.339Z,6.86
2022-12-22T17:50:20.944Z,6.94
2022-12-22T17:52:49.165Z,7.01
2022-12-22T17:55:49.914Z,7.04
2022-12-22T17:58:14.799Z,7.07
2022-12-22T18:00:43.117Z,7.07
2022-12-22T18:03:13.182Z,7.04
2022-12-22T18:05:43.367Z,7.00
2022-12-22T18:08:14.268Z,6.97
2022-12-22T18:10:42.826Z,6.92
2022-12-22T18:13:16.527Z,6.83
2022-12-22T18:15:44.717Z,6.79
2022-12-22T18:18:14.799Z,6.69
2022-12-22T18:20:43.225Z,6.61
2022-12-22T18:23:16.292Z,6.55
2022-12-22T18:25:44.526Z,6.48
2022-12-22T18:28:15.629Z,6.39
2022-12-22T18:30:44.279Z,6.34
2022-12-22T18:33:12.654Z,6.28
2022-12-22T18:35:40.998Z,6.25
2022-12-22T18:38:17.900Z,6.25
2022-12-22T18:40:46.037Z,6.17
2022-12-22T18:43:15.724Z,6.13
2022-12-22T18:45:43.782Z,6.08
2022-12-22T18:48:11.839Z,6.03
2022-12-22T18:50:40.870Z,6.01
2022-12-22T18:53:18.335Z,5.98
2022-12-22T18:55:46.604Z,5.94
2022-12-22T18:58:16.117Z,5.91
2022-12-22T19:00:44.596Z,5.84
2022-12-22T19:03:17.836Z,5.83
2022-12-22T19:05:47.614Z,5.76
2022-12-22T19:08:17.239Z,5.69
2022-12-22T19:10:49.192Z,5.66
2022-12-22T19:13:22.696Z,5.60
2022-12-22T19:15:52.527Z,5.56
2022-12-22T19:18:26.463Z,5.55
2022-12-22T19:20:55.690Z,5.53
2022-12-22T19:23:25.385Z,5.53
2022-12-22T19:25:55.810Z,5.52
2022-12-22T19:28:31.037Z,5.46
2022-12-22T19:30:59.485Z,5.47
2022-12-22T19:33:30.352Z,5.43
2022-12-22T19:35:59.059Z,5.45
2022-12-22T19:38:28.089Z,5.50
2022-12-22T19:41:00.135Z,5.47
2022-12-22T19:43:29.725Z,5.45
2022-12-22T19:45:58.188Z,5.45
2022-12-22T19:48:27.718Z,5.43
2022-12-22T19:50:56.132Z,5.46
2022-12-22T19:53:24.162Z,5.55
2022-12-22T19:55:54.070Z,5.53
2022-12-22T19:58:24.200Z,5.49
2022-12-22T20:00:54.603Z,5.53
2022-12-22T20:03:24.835Z,5.49
2022-12-22T20:05:53.011Z,5.46
2022-12-22T20:08:21.040Z,5.40
2022-12-22T20:10:54.475Z,5.36
2022-12-22T20:13:30.054Z,5.36
2022-12-22T20:15:59.573Z,5.42
2022-12-22T20:18:30.204Z,5.45
2022-12-22T20:21:02.423Z,5.53
2022-12-22T20:23:33.049Z,5.52
2022-12-22T20:26:04.077Z,5.56
2022-12-22T20:28:34.758Z,5.62
2022-12-22T20:31:05.404Z,5.60
2022-12-22T20:33:34.820Z,5.63
2022-12-22T20:36:03.623Z,5.70
2022-12-22T20:38:34.768Z,5.73
2022-12-22T20:41:03.563Z,5.76
2022-12-22T20:43:32.960Z,5.74
2022-12-22T20:46:04.879Z,5.76
2022-12-22T20:48:34.757Z,5.76
2022-12-22T20:51:04.729Z,5.74
2022-12-22T20:53:33.089Z,5.80
2022-12-22T20:56:01.813Z,5.82
2022-12-22T20:58:34.058Z,5.78
2022-12-22T21:01:02.165Z,5.77
2022-12-22T21:03:31.565Z,5.76
2022-12-22T21:05:59.613Z,5.74
2022-12-22T21:08:27.787Z,5.73
2022-12-22T21:10:56.256Z,5.76
2022-12-22T21:13:24.267Z,5.73
2022-12-22T21:15:52.711Z,5.76
2022-12-22T21:18:22.780Z,5.76
2022-12-22T21:20:52.976Z,5.74
2022-12-22T21:23:21.136Z,5.73
2022-12-22T21:25:51.371Z,5.74
2022-12-22T21:28:24.730Z,5.73
2022-12-22T21:30:52.874Z,5.70
2022-12-22T21:33:20.878Z,5.70
2022-12-22T21:35:48.971Z,5.70
2022-12-22T21:38:20.235Z,5.71
2022-12-22T21:40:49.564Z,5.69
2022-12-22T21:43:18.038Z,5.67
2022-12-22T21:45:46.788Z,5.69
2022-12-22T21:48:18.654Z,5.67
2022-12-22T21:50:47.354Z,5.70
2022-12-22T21:53:21.514Z,5.69
2022-12-22T21:55:51.527Z,5.73
2022-12-22T21:58:19.524Z,5.73
2022-12-22T22:00:49.259Z,5.73
2022-12-22T22:03:17.528Z,5.73
2022-12-22T22:05:45.504Z,5.76
2022-12-22T22:08:13.939Z,5.71
2022-12-22T22:10:44.149Z,5.77
2022-12-22T22:13:15.986Z,5.76
2022-12-22T22:15:44.337Z,5.74
2022-12-22T22:18:16.580Z,5.74
2022-12-22T22:20:44.892Z,5.71
2022-12-22T22:23:14.519Z,5.74
2022-12-22T22:25:42.531Z,5.71
2022-12-22T22:28:11.452Z,5.71
2022-12-22T22:30:42.912Z,5.71
2022-12-22T22:33:11.509Z,5.70
2022-12-22T22:35:42.379Z,5.69
2022-12-22T22:38:11.996Z,5.70
2022-12-22T22:40:40.110Z,5.69
2022-12-22T22:43:08.138Z,5.66
2022-12-22T22:45:38.370Z,5.67
2022-12-22T22:48:11.051Z,5.67
2022-12-22T22:50:41.514Z,5.66
2022-12-22T22:53:09.654Z,5.67
2022-12-22T22:55:37.613Z,5.69
2022-12-22T22:58:05.763Z,5.71
2022-12-22T23:00:33.985Z,5.74
2022-12-22T23:03:02.049Z,5.70
2022-12-22T23:05:31.792Z,5.70
2022-12-22T23:07:59.895Z,5.71
2022-12-22T23:10:27.875Z,5.70
2022-12-22T23:12:55.903Z,5.73
2022-12-22T23:15:23.883Z,5.76
2022-12-22T23:17:52.100Z,5.71
2022-12-22T23:20:20.249Z,5.76
2022-12-22T23:22:49.557Z,5.74
2022-12-22T23:25:17.699Z,5.77
2022-12-22T23:27:45.709Z,5.78
2022-12-22T23:30:14.610Z,5.82
2022-12-22T23:32:42.689Z,5.80
2022-12-22T23:35:11.321Z,5.83
2022-12-22T23:37:39.319Z,5.84
2022-12-22T23:40:42.017Z,5.86
2022-12-22T23:42:58.300Z,5.86
2022-12-22T23:45:28.604Z,5.87
2022-12-22T23:47:56.742Z,5.86
2022-12-22T23:50:25.502Z,5.89
2022-12-22T23:52:53.833Z,5.87
2022-12-22T23:55:23.777Z,5.84
2022-12-22T23:57:53.161Z,5.86
